sensor_id;sensor_type;location;lat;lon;timestamp;temperature;humidity
21171;DHT22;10743;52.160;20.910;2023-07-02T00:00:12;32.00;44.60
21171;DHT22;10743;52.160;20.910;2023-07-02T00:02:40;32.00;44.60
21171;DHT22;10743;52.160;20.910;2023-07-02T00:05:07;32.00;44.60
21171;DHT22;10743;52.160;20.910;2023-07-02T00:07:35;32.00;44.60
21171;DHT22;10743;52.160;20.910;2023-07-02T00:10:03;31.90;44.50
21171;DHT22;10743;52.160;20.910;2023-07-02T00:12:31;31.90;44.50
21171;DHT22;10743;52.160;20.910;2023-07-02T00:14:58;31.90;44.50
21171;DHT22;10743;52.160;20.910;2023-07-02T00:17:25;31.90;44.50
21171;DHT22;10743;52.160;20.910;2023-07-02T00:19:52;31.90;44.60
21171;DHT22;10743;52.160;20.910;2023-07-02T00:22:20;31.80;44.50
21171;DHT22;10743;52.160;20.910;2023-07-02T00:24:47;31.80;44.50
21171;DHT22;10743;52.160;20.910;2023-07-02T00:27:14;31.80;44.50
21171;DHT22;10743;52.160;20.910;2023-07-02T00:29:41;31.80;44.60
21171;DHT22;10743;52.160;20.910;2023-07-02T00:32:08;31.80;44.70
21171;DHT22;10743;52.160;20.910;2023-07-02T00:34:36;31.80;44.80
21171;DHT22;10743;52.160;20.910;2023-07-02T00:37:03;31.80;44.80
21171;DHT22;10743;52.160;20.910;2023-07-02T00:39:30;31.80;44.80
21171;DHT22;10743;52.160;20.910;2023-07-02T00:42:01;31.80;44.70
21171;DHT22;10743;52.160;20.910;2023-07-02T00:44:32;31.70;44.70
21171;DHT22;10743;52.160;20.910;2023-07-02T00:46:59;31.70;44.70
21171;DHT22;10743;52.160;20.910;2023-07-02T00:49:27;31.70;44.70
21171;DHT22;10743;52.160;20.910;2023-07-02T00:51:54;31.60;44.70
21171;DHT22;10743;52.160;20.910;2023-07-02T00:54:22;31.60;44.70
21171;DHT22;10743;52.160;20.910;2023-07-02T00:56:49;31.60;44.70
21171;DHT22;10743;52.160;20.910;2023-07-02T00:59:17;31.60;44.70
21171;DHT22;10743;52.160;20.910;2023-07-02T01:01:44;31.60;44.70
21171;DHT22;10743;52.160;20.910;2023-07-02T01:04:19;31.50;44.70
21171;DHT22;10743;52.160;20.910;2023-07-02T01:06:46;31.50;44.80
21171;DHT22;10743;52.160;20.910;2023-07-02T01:09:13;31.50;45.00
21171;DHT22;10743;52.160;20.910;2023-07-02T01:11:46;31.50;44.90
21171;DHT22;10743;52.160;20.910;2023-07-02T01:14:27;31.50;45.00
21171;DHT22;10743;52.160;20.910;2023-07-02T01:16:57;31.40;45.00
21171;DHT22;10743;52.160;20.910;2023-07-02T01:22:22;31.40;45.10
21171;DHT22;10743;52.160;20.910;2023-07-02T01:24:52;31.40;45.20
21171;DHT22;10743;52.160;20.910;2023-07-02T01:27:20;31.30;45.20
21171;DHT22;10743;52.160;20.910;2023-07-02T01:29:51;31.40;45.30
21171;DHT22;10743;52.160;20.910;2023-07-02T01:32:19;31.40;45.40
21171;DHT22;10743;52.160;20.910;2023-07-02T01:34:49;31.30;45.40
21171;DHT22;10743;52.160;20.910;2023-07-02T01:37:16;31.30;45.40
21171;DHT22;10743;52.160;20.910;2023-07-02T01:39:44;31.30;45.30
21171;DHT22;10743;52.160;20.910;2023-07-02T01:44:39;31.30;45.60
21171;DHT22;10743;52.160;20.910;2023-07-02T01:47:06;31.30;45.60
21171;DHT22;10743;52.160;20.910;2023-07-02T01:49:33;31.30;45.70
21171;DHT22;10743;52.160;20.910;2023-07-02T01:52:01;31.30;45.70
21171;DHT22;10743;52.160;20.910;2023-07-02T01:54:29;31.30;45.70
21171;DHT22;10743;52.160;20.910;2023-07-02T01:56:56;31.30;45.80
21171;DHT22;10743;52.160;20.910;2023-07-02T01:59:24;31.30;45.90
21171;DHT22;10743;52.160;20.910;2023-07-02T02:01:52;31.30;45.90
21171;DHT22;10743;52.160;20.910;2023-07-02T02:04:19;31.30;46.70
21171;DHT22;10743;52.160;20.910;2023-07-02T02:06:46;31.30;46.00
21171;DHT22;10743;52.160;20.910;2023-07-02T02:09:13;31.30;46.00
21171;DHT22;10743;52.160;20.910;2023-07-02T02:11:43;31.30;46.00
21171;DHT22;10743;52.160;20.910;2023-07-02T02:14:15;31.30;46.00
21171;DHT22;10743;52.160;20.910;2023-07-02T02:16:43;31.30;46.10
21171;DHT22;10743;52.160;20.910;2023-07-02T02:19:14;31.30;46.10
21171;DHT22;10743;52.160;20.910;2023-07-02T02:21:42;31.30;46.10
21171;DHT22;10743;52.160;20.910;2023-07-02T02:24:10;31.40;46.00
21171;DHT22;10743;52.160;20.910;2023-07-02T02:26:37;31.40;46.00
21171;DHT22;10743;52.160;20.910;2023-07-02T02:29:04;31.40;46.00
21171;DHT22;10743;52.160;20.910;2023-07-02T02:31:32;31.40;45.90
21171;DHT22;10743;52.160;20.910;2023-07-02T02:34:00;31.40;45.90
21171;DHT22;10743;52.160;20.910;2023-07-02T02:36:28;31.40;45.90
21171;DHT22;10743;52.160;20.910;2023-07-02T02:38:55;31.40;46.00
21171;DHT22;10743;52.160;20.910;2023-07-02T02:41:24;31.40;45.80
21171;DHT22;10743;52.160;20.910;2023-07-02T02:43:52;31.50;46.00
21171;DHT22;10743;52.160;20.910;2023-07-02T02:46:21;31.50;45.80
21171;DHT22;10743;52.160;20.910;2023-07-02T02:48:50;31.50;45.80
21171;DHT22;10743;52.160;20.910;2023-07-02T02:51:18;31.50;45.70
21171;DHT22;10743;52.160;20.910;2023-07-02T02:53:45;31.50;45.60
21171;DHT22;10743;52.160;20.910;2023-07-02T02:56:13;31.50;45.50
21171;DHT22;10743;52.160;20.910;2023-07-02T02:58:40;31.50;45.40
21171;DHT22;10743;52.160;20.910;2023-07-02T03:01:08;31.60;45.40
21171;DHT22;10743;52.160;20.910;2023-07-02T03:03:39;31.60;45.40
21171;DHT22;10743;52.160;20.910;2023-07-02T03:06:13;31.60;45.40
21171;DHT22;10743;52.160;20.910;2023-07-02T03:08:44;31.60;45.50
21171;DHT22;10743;52.160;20.910;2023-07-02T03:11:11;31.60;45.40
21171;DHT22;10743;52.160;20.910;2023-07-02T03:13:38;31.60;45.30
21171;DHT22;10743;52.160;20.910;2023-07-02T03:16:06;31.60;45.20
21171;DHT22;10743;52.160;20.910;2023-07-02T03:18:33;31.60;45.20
21171;DHT22;10743;52.160;20.910;2023-07-02T03:21:00;31.60;45.30
21171;DHT22;10743;52.160;20.910;2023-07-02T03:23:27;31.60;45.30
21171;DHT22;10743;52.160;20.910;2023-07-02T03:25:54;31.60;45.30
21171;DHT22;10743;52.160;20.910;2023-07-02T03:28:21;31.70;45.30
21171;DHT22;10743;52.160;20.910;2023-07-02T03:30:48;31.70;45.20
21171;DHT22;10743;52.160;20.910;2023-07-02T03:33:16;31.70;45.30
21171;DHT22;10743;52.160;20.910;2023-07-02T03:35:43;31.80;45.30
21171;DHT22;10743;52.160;20.910;2023-07-02T03:38:10;31.80;45.10
21171;DHT22;10743;52.160;20.910;2023-07-02T03:40:37;31.80;45.00
21171;DHT22;10743;52.160;20.910;2023-07-02T03:43:05;31.80;44.90
21171;DHT22;10743;52.160;20.910;2023-07-02T03:45:33;31.80;45.30
21171;DHT22;10743;52.160;20.910;2023-07-02T03:48:00;31.80;44.80
21171;DHT22;10743;52.160;20.910;2023-07-02T03:50:27;31.80;44.80
21171;DHT22;10743;52.160;20.910;2023-07-02T03:52:54;31.80;44.90
21171;DHT22;10743;52.160;20.910;2023-07-02T03:55:21;31.80;44.90
21171;DHT22;10743;52.160;20.910;2023-07-02T03:57:48;31.80;44.90
21171;DHT22;10743;52.160;20.910;2023-07-02T04:00:15;31.80;44.80
21171;DHT22;10743;52.160;20.910;2023-07-02T04:02:42;31.80;44.80
21171;DHT22;10743;52.160;20.910;2023-07-02T04:05:10;31.80;44.60
21171;DHT22;10743;52.160;20.910;2023-07-02T04:07:37;31.80;44.70
21171;DHT22;10743;52.160;20.910;2023-07-02T04:10:05;31.80;44.60
21171;DHT22;10743;52.160;20.910;2023-07-02T04:12:32;31.80;44.60
21171;DHT22;10743;52.160;20.910;2023-07-02T04:14:59;31.90;44.50
21171;DHT22;10743;52.160;20.910;2023-07-02T04:17:27;31.90;44.40
21171;DHT22;10743;52.160;20.910;2023-07-02T04:19:54;31.90;44.30
21171;DHT22;10743;52.160;20.910;2023-07-02T04:22:22;31.90;44.20
21171;DHT22;10743;52.160;20.910;2023-07-02T04:24:49;31.90;44.30
21171;DHT22;10743;52.160;20.910;2023-07-02T04:27:18;31.90;44.40
21171;DHT22;10743;52.160;20.910;2023-07-02T04:30:05;31.90;44.20
21171;DHT22;10743;52.160;20.910;2023-07-02T04:32:35;32.00;44.10
21171;DHT22;10743;52.160;20.910;2023-07-02T04:35:08;32.00;44.00
21171;DHT22;10743;52.160;20.910;2023-07-02T04:37:36;32.00;44.00
21171;DHT22;10743;52.160;20.910;2023-07-02T04:40:03;32.00;43.90
21171;DHT22;10743;52.160;20.910;2023-07-02T04:42:33;32.00;43.90
21171;DHT22;10743;52.160;20.910;2023-07-02T04:45:01;32.00;43.70
21171;DHT22;10743;52.160;20.910;2023-07-02T04:47:29;32.00;43.60
21171;DHT22;10743;52.160;20.910;2023-07-02T04:49:57;32.10;43.60
21171;DHT22;10743;52.160;20.910;2023-07-02T04:52:24;32.00;43.50
21171;DHT22;10743;52.160;20.910;2023-07-02T04:54:51;32.10;43.10
21171;DHT22;10743;52.160;20.910;2023-07-02T04:57:18;32.20;42.90
21171;DHT22;10743;52.160;20.910;2023-07-02T04:59:45;32.10;42.70
21171;DHT22;10743;52.160;20.910;2023-07-02T05:02:12;32.10;42.50
21171;DHT22;10743;52.160;20.910;2023-07-02T05:04:39;32.20;42.50
21171;DHT22;10743;52.160;20.910;2023-07-02T05:07:06;32.20;42.30
21171;DHT22;10743;52.160;20.910;2023-07-02T05:09:33;32.20;42.30
21171;DHT22;10743;52.160;20.910;2023-07-02T05:12:00;32.20;42.10
21171;DHT22;10743;52.160;20.910;2023-07-02T05:14:27;32.20;41.90
21171;DHT22;10743;52.160;20.910;2023-07-02T05:16:54;32.20;42.00
21171;DHT22;10743;52.160;20.910;2023-07-02T05:19:21;32.20;42.00
21171;DHT22;10743;52.160;20.910;2023-07-02T05:21:48;32.20;41.60
21171;DHT22;10743;52.160;20.910;2023-07-02T05:24:16;32.30;41.30
21171;DHT22;10743;52.160;20.910;2023-07-02T05:26:43;32.30;41.40
21171;DHT22;10743;52.160;20.910;2023-07-02T05:29:10;32.30;41.20
21171;DHT22;10743;52.160;20.910;2023-07-02T05:31:37;32.30;41.00
21171;DHT22;10743;52.160;20.910;2023-07-02T05:34:05;32.30;40.70
21171;DHT22;10743;52.160;20.910;2023-07-02T05:36:32;32.40;40.60
21171;DHT22;10743;52.160;20.910;2023-07-02T05:38:59;32.40;40.50
21171;DHT22;10743;52.160;20.910;2023-07-02T05:41:26;32.40;40.40
21171;DHT22;10743;52.160;20.910;2023-07-02T05:43:57;32.40;40.60
21171;DHT22;10743;52.160;20.910;2023-07-02T05:46:25;32.40;40.40
21171;DHT22;10743;52.160;20.910;2023-07-02T05:48:52;32.40;40.40
21171;DHT22;10743;52.160;20.910;2023-07-02T05:51:26;32.50;40.50
21171;DHT22;10743;52.160;20.910;2023-07-02T05:53:53;32.50;40.20
21171;DHT22;10743;52.160;20.910;2023-07-02T05:56:20;32.60;40.20
21171;DHT22;10743;52.160;20.910;2023-07-02T05:58:48;32.60;40.10
21171;DHT22;10743;52.160;20.910;2023-07-02T06:01:16;32.60;40.10
21171;DHT22;10743;52.160;20.910;2023-07-02T06:03:44;32.60;40.20
21171;DHT22;10743;52.160;20.910;2023-07-02T06:06:12;32.60;40.10
21171;DHT22;10743;52.160;20.910;2023-07-02T06:08:39;32.70;40.00
21171;DHT22;10743;52.160;20.910;2023-07-02T06:11:06;32.70;40.20
21171;DHT22;10743;52.160;20.910;2023-07-02T06:13:34;32.70;40.00
21171;DHT22;10743;52.160;20.910;2023-07-02T06:16:01;32.70;39.90
21171;DHT22;10743;52.160;20.910;2023-07-02T06:18:28;32.80;40.00
21171;DHT22;10743;52.160;20.910;2023-07-02T06:20:55;32.80;39.90
21171;DHT22;10743;52.160;20.910;2023-07-02T06:23:23;32.80;39.80
21171;DHT22;10743;52.160;20.910;2023-07-02T06:25:50;32.80;39.70
21171;DHT22;10743;52.160;20.910;2023-07-02T06:28:19;32.90;39.60
21171;DHT22;10743;52.160;20.910;2023-07-02T06:30:46;32.90;39.50
21171;DHT22;10743;52.160;20.910;2023-07-02T06:33:14;32.90;39.60
21171;DHT22;10743;52.160;20.910;2023-07-02T06:35:41;33.00;39.30
21171;DHT22;10743;52.160;20.910;2023-07-02T06:38:08;33.00;39.40
21171;DHT22;10743;52.160;20.910;2023-07-02T06:40:35;33.00;39.50
21171;DHT22;10743;52.160;20.910;2023-07-02T06:43:02;33.00;39.50
21171;DHT22;10743;52.160;20.910;2023-07-02T06:45:29;33.00;39.60
21171;DHT22;10743;52.160;20.910;2023-07-02T06:47:56;33.10;39.40
21171;DHT22;10743;52.160;20.910;2023-07-02T06:50:24;33.10;39.60
21171;DHT22;10743;52.160;20.910;2023-07-02T06:52:51;33.10;39.80
21171;DHT22;10743;52.160;20.910;2023-07-02T06:55:18;33.10;40.00
21171;DHT22;10743;52.160;20.910;2023-07-02T06:57:45;33.10;40.00
21171;DHT22;10743;52.160;20.910;2023-07-02T07:00:13;33.20;40.00
21171;DHT22;10743;52.160;20.910;2023-07-02T07:02:41;33.30;39.60
21171;DHT22;10743;52.160;20.910;2023-07-02T07:05:08;33.30;39.50
21171;DHT22;10743;52.160;20.910;2023-07-02T07:07:36;33.40;39.50
21171;DHT22;10743;52.160;20.910;2023-07-02T07:10:04;33.40;39.30
21171;DHT22;10743;52.160;20.910;2023-07-02T07:12:32;33.40;39.40
21171;DHT22;10743;52.160;20.910;2023-07-02T07:14:59;33.50;39.60
21171;DHT22;10743;52.160;20.910;2023-07-02T07:17:26;33.50;39.90
21171;DHT22;10743;52.160;20.910;2023-07-02T07:19:53;33.50;39.90
21171;DHT22;10743;52.160;20.910;2023-07-02T07:22:20;33.50;39.90
21171;DHT22;10743;52.160;20.910;2023-07-02T07:24:47;33.60;40.10
21171;DHT22;10743;52.160;20.910;2023-07-02T07:27:14;33.60;39.90
21171;DHT22;10743;52.160;20.910;2023-07-02T07:29:41;33.60;39.70
21171;DHT22;10743;52.160;20.910;2023-07-02T07:32:08;33.60;40.10
21171;DHT22;10743;52.160;20.910;2023-07-02T07:34:35;33.60;40.20
21171;DHT22;10743;52.160;20.910;2023-07-02T07:37:03;33.60;40.30
21171;DHT22;10743;52.160;20.910;2023-07-02T07:39:30;33.70;40.30
21171;DHT22;10743;52.160;20.910;2023-07-02T07:41:57;33.70;40.40
21171;DHT22;10743;52.160;20.910;2023-07-02T07:44:24;33.70;40.40
21171;DHT22;10743;52.160;20.910;2023-07-02T07:46:56;33.70;40.40
21171;DHT22;10743;52.160;20.910;2023-07-02T07:49:23;33.70;40.30
21171;DHT22;10743;52.160;20.910;2023-07-02T07:51:50;33.70;40.40
21171;DHT22;10743;52.160;20.910;2023-07-02T07:54:17;33.70;40.60
21171;DHT22;10743;52.160;20.910;2023-07-02T07:56:44;33.70;40.60
21171;DHT22;10743;52.160;20.910;2023-07-02T07:59:11;33.70;40.70
21171;DHT22;10743;52.160;20.910;2023-07-02T08:01:41;33.60;40.70
21171;DHT22;10743;52.160;20.910;2023-07-02T08:04:08;33.60;40.90
21171;DHT22;10743;52.160;20.910;2023-07-02T08:06:36;33.60;41.00
21171;DHT22;10743;52.160;20.910;2023-07-02T08:09:03;33.60;41.10
21171;DHT22;10743;52.160;20.910;2023-07-02T08:11:30;33.60;40.70
21171;DHT22;10743;52.160;20.910;2023-07-02T08:13:58;33.60;40.70
21171;DHT22;10743;52.160;20.910;2023-07-02T08:16:25;33.60;40.80
21171;DHT22;10743;52.160;20.910;2023-07-02T08:18:52;33.60;41.10
21171;DHT22;10743;52.160;20.910;2023-07-02T08:21:19;33.50;41.00
21171;DHT22;10743;52.160;20.910;2023-07-02T08:23:46;33.60;41.00
21171;DHT22;10743;52.160;20.910;2023-07-02T08:26:13;33.60;41.10
21171;DHT22;10743;52.160;20.910;2023-07-02T08:28:41;33.60;41.10
21171;DHT22;10743;52.160;20.910;2023-07-02T08:31:08;33.60;41.00
21171;DHT22;10743;52.160;20.910;2023-07-02T08:33:35;33.60;41.20
21171;DHT22;10743;52.160;20.910;2023-07-02T08:36:02;33.60;41.10
21171;DHT22;10743;52.160;20.910;2023-07-02T08:38:29;33.70;41.30
21171;DHT22;10743;52.160;20.910;2023-07-02T08:40:56;33.70;41.20
21171;DHT22;10743;52.160;20.910;2023-07-02T08:43:25;33.70;41.10
21171;DHT22;10743;52.160;20.910;2023-07-02T08:45:54;33.70;41.20
21171;DHT22;10743;52.160;20.910;2023-07-02T08:48:21;33.70;41.30
21171;DHT22;10743;52.160;20.910;2023-07-02T08:50:51;33.70;41.40
21171;DHT22;10743;52.160;20.910;2023-07-02T08:53:19;33.70;41.40
21171;DHT22;10743;52.160;20.910;2023-07-02T08:55:46;33.70;41.60
21171;DHT22;10743;52.160;20.910;2023-07-02T08:58:14;33.70;41.80
21171;DHT22;10743;52.160;20.910;2023-07-02T09:01:08;33.70;41.70
21171;DHT22;10743;52.160;20.910;2023-07-02T09:03:37;33.70;41.50
21171;DHT22;10743;52.160;20.910;2023-07-02T09:06:05;33.70;41.80
21171;DHT22;10743;52.160;20.910;2023-07-02T09:08:38;33.70;41.90
21171;DHT22;10743;52.160;20.910;2023-07-02T09:11:12;33.70;41.70
21171;DHT22;10743;52.160;20.910;2023-07-02T09:13:52;33.70;41.50
21171;DHT22;10743;52.160;20.910;2023-07-02T09:16:27;33.70;41.50
21171;DHT22;10743;52.160;20.910;2023-07-02T09:19:03;33.70;41.60
21171;DHT22;10743;52.160;20.910;2023-07-02T09:21:46;33.70;41.70
21171;DHT22;10743;52.160;20.910;2023-07-02T09:26:45;33.70;41.80
21171;DHT22;10743;52.160;20.910;2023-07-02T09:29:13;33.70;41.80
21171;DHT22;10743;52.160;20.910;2023-07-02T09:31:47;33.70;41.60
21171;DHT22;10743;52.160;20.910;2023-07-02T09:34:36;33.80;41.80
21171;DHT22;10743;52.160;20.910;2023-07-02T09:37:04;33.70;41.50
21171;DHT22;10743;52.160;20.910;2023-07-02T09:39:36;33.80;42.20
21171;DHT22;10743;52.160;20.910;2023-07-02T09:42:08;33.70;41.10
21171;DHT22;10743;52.160;20.910;2023-07-02T09:44:37;33.80;40.90
21171;DHT22;10743;52.160;20.910;2023-07-02T09:47:06;33.70;41.10
21171;DHT22;10743;52.160;20.910;2023-07-02T09:49:40;33.70;41.20
21171;DHT22;10743;52.160;20.910;2023-07-02T09:52:10;33.70;41.30
21171;DHT22;10743;52.160;20.910;2023-07-02T09:54:38;33.70;41.50
21171;DHT22;10743;52.160;20.910;2023-07-02T09:57:05;33.70;41.90
21171;DHT22;10743;52.160;20.910;2023-07-02T09:59:34;33.80;41.90
21171;DHT22;10743;52.160;20.910;2023-07-02T10:02:02;33.80;41.50
21171;DHT22;10743;52.160;20.910;2023-07-02T10:04:46;33.80;41.70
21171;DHT22;10743;52.160;20.910;2023-07-02T10:07:30;33.90;41.50
21171;DHT22;10743;52.160;20.910;2023-07-02T10:09:59;34.00;42.00
21171;DHT22;10743;52.160;20.910;2023-07-02T10:12:27;34.00;41.20
21171;DHT22;10743;52.160;20.910;2023-07-02T10:14:57;34.10;41.30
21171;DHT22;10743;52.160;20.910;2023-07-02T10:19:55;34.30;41.30
21171;DHT22;10743;52.160;20.910;2023-07-02T10:22:23;34.30;41.20
21171;DHT22;10743;52.160;20.910;2023-07-02T10:24:59;34.30;41.20
21171;DHT22;10743;52.160;20.910;2023-07-02T10:27:40;34.40;41.10
21171;DHT22;10743;52.160;20.910;2023-07-02T10:30:09;34.40;40.80
21171;DHT22;10743;52.160;20.910;2023-07-02T10:32:38;34.50;41.20
21171;DHT22;10743;52.160;20.910;2023-07-02T10:35:15;34.60;40.90
21171;DHT22;10743;52.160;20.910;2023-07-02T10:37:44;34.70;41.00
21171;DHT22;10743;52.160;20.910;2023-07-02T10:40:11;34.80;40.20
21171;DHT22;10743;52.160;20.910;2023-07-02T10:42:49;34.90;39.70
21171;DHT22;10743;52.160;20.910;2023-07-02T10:45:19;35.00;39.60
21171;DHT22;10743;52.160;20.910;2023-07-02T10:47:47;35.10;39.90
21171;DHT22;10743;52.160;20.910;2023-07-02T10:50:21;35.10;39.70
21171;DHT22;10743;52.160;20.910;2023-07-02T10:52:50;35.20;38.90
21171;DHT22;10743;52.160;20.910;2023-07-02T10:55:22;35.30;39.00
21171;DHT22;10743;52.160;20.910;2023-07-02T10:58:02;35.30;39.20
21171;DHT22;10743;52.160;20.910;2023-07-02T11:00:30;35.40;38.80
21171;DHT22;10743;52.160;20.910;2023-07-02T11:02:59;35.50;38.20
21171;DHT22;10743;52.160;20.910;2023-07-02T11:05:26;35.40;37.70
21171;DHT22;10743;52.160;20.910;2023-07-02T11:08:08;35.50;37.30
21171;DHT22;10743;52.160;20.910;2023-07-02T11:10:35;35.50;36.70
21171;DHT22;10743;52.160;20.910;2023-07-02T11:13:17;35.60;36.20
21171;DHT22;10743;52.160;20.910;2023-07-02T11:15:45;35.60;36.60
21171;DHT22;10743;52.160;20.910;2023-07-02T11:18:16;35.50;37.40
21171;DHT22;10743;52.160;20.910;2023-07-02T11:20:45;35.50;37.10
21171;DHT22;10743;52.160;20.910;2023-07-02T11:23:19;35.50;37.90
21171;DHT22;10743;52.160;20.910;2023-07-02T11:25:58;35.40;38.10
21171;DHT22;10743;52.160;20.910;2023-07-02T11:28:27;35.40;38.60
21171;DHT22;10743;52.160;20.910;2023-07-02T11:30:57;35.40;38.50
21171;DHT22;10743;52.160;20.910;2023-07-02T11:33:38;35.30;38.50
21171;DHT22;10743;52.160;20.910;2023-07-02T11:36:07;35.30;38.90
21171;DHT22;10743;52.160;20.910;2023-07-02T11:38:46;35.30;38.70
21171;DHT22;10743;52.160;20.910;2023-07-02T11:41:14;35.20;38.70
21171;DHT22;10743;52.160;20.910;2023-07-02T11:43:41;35.20;38.90
21171;DHT22;10743;52.160;20.910;2023-07-02T11:46:08;35.20;39.00
21171;DHT22;10743;52.160;20.910;2023-07-02T11:48:35;35.20;39.40
21171;DHT22;10743;52.160;20.910;2023-07-02T11:51:02;35.20;39.40
21171;DHT22;10743;52.160;20.910;2023-07-02T11:53:29;35.20;39.40
21171;DHT22;10743;52.160;20.910;2023-07-02T11:55:56;35.20;39.80
21171;DHT22;10743;52.160;20.910;2023-07-02T11:58:23;35.20;39.90
21171;DHT22;10743;52.160;20.910;2023-07-02T12:00:50;35.30;40.70
21171;DHT22;10743;52.160;20.910;2023-07-02T12:03:18;35.30;40.30
21171;DHT22;10743;52.160;20.910;2023-07-02T12:05:45;35.40;40.20
21171;DHT22;10743;52.160;20.910;2023-07-02T12:08:14;35.40;39.80
21171;DHT22;10743;52.160;20.910;2023-07-02T12:10:41;35.50;39.60
21171;DHT22;10743;52.160;20.910;2023-07-02T12:13:08;35.50;39.10
21171;DHT22;10743;52.160;20.910;2023-07-02T12:15:35;35.60;39.20
21171;DHT22;10743;52.160;20.910;2023-07-02T12:18:02;35.60;39.20
21171;DHT22;10743;52.160;20.910;2023-07-02T12:20:30;35.60;39.60
21171;DHT22;10743;52.160;20.910;2023-07-02T12:22:57;35.70;39.60
21171;DHT22;10743;52.160;20.910;2023-07-02T12:25:27;35.70;39.10
21171;DHT22;10743;52.160;20.910;2023-07-02T12:27:54;35.80;38.40
21171;DHT22;10743;52.160;20.910;2023-07-02T12:30:21;35.90;38.20
21171;DHT22;10743;52.160;20.910;2023-07-02T12:32:48;35.90;38.10
21171;DHT22;10743;52.160;20.910;2023-07-02T12:35:16;36.00;37.00
21171;DHT22;10743;52.160;20.910;2023-07-02T12:37:47;36.10;35.90
21171;DHT22;10743;52.160;20.910;2023-07-02T12:40:15;36.10;35.30
21171;DHT22;10743;52.160;20.910;2023-07-02T12:42:44;36.10;35.10
21171;DHT22;10743;52.160;20.910;2023-07-02T12:45:12;36.20;35.50
21171;DHT22;10743;52.160;20.910;2023-07-02T12:47:40;36.20;35.30
21171;DHT22;10743;52.160;20.910;2023-07-02T12:50:10;36.20;34.20
21171;DHT22;10743;52.160;20.910;2023-07-02T12:52:37;36.20;33.50
21171;DHT22;10743;52.160;20.910;2023-07-02T12:55:04;36.20;32.80
21171;DHT22;10743;52.160;20.910;2023-07-02T12:57:32;36.30;32.70
21171;DHT22;10743;52.160;20.910;2023-07-02T12:59:59;36.30;31.70
21171;DHT22;10743;52.160;20.910;2023-07-02T13:02:26;36.30;31.20
21171;DHT22;10743;52.160;20.910;2023-07-02T13:04:53;36.30;31.00
21171;DHT22;10743;52.160;20.910;2023-07-02T13:07:20;36.30;31.10
21171;DHT22;10743;52.160;20.910;2023-07-02T13:09:48;36.40;31.30
21171;DHT22;10743;52.160;20.910;2023-07-02T13:12:15;36.40;31.10
21171;DHT22;10743;52.160;20.910;2023-07-02T13:14:42;36.40;30.20
21171;DHT22;10743;52.160;20.910;2023-07-02T13:17:09;36.50;30.60
21171;DHT22;10743;52.160;20.910;2023-07-02T13:19:36;36.50;30.00
21171;DHT22;10743;52.160;20.910;2023-07-02T13:22:04;36.60;30.00
21171;DHT22;10743;52.160;20.910;2023-07-02T13:24:34;36.60;29.70
21171;DHT22;10743;52.160;20.910;2023-07-02T13:27:11;36.60;29.60
21171;DHT22;10743;52.160;20.910;2023-07-02T13:29:40;36.50;29.70
21171;DHT22;10743;52.160;20.910;2023-07-02T13:32:07;36.50;29.60
21171;DHT22;10743;52.160;20.910;2023-07-02T13:34:35;36.50;29.70
21171;DHT22;10743;52.160;20.910;2023-07-02T13:37:02;36.50;29.00
21171;DHT22;10743;52.160;20.910;2023-07-02T13:39:30;36.40;29.60
21171;DHT22;10743;52.160;20.910;2023-07-02T13:41:57;36.40;29.50
21171;DHT22;10743;52.160;20.910;2023-07-02T13:44:25;36.30;29.70
21171;DHT22;10743;52.160;20.910;2023-07-02T13:46:52;36.30;29.90
21171;DHT22;10743;52.160;20.910;2023-07-02T13:49:20;36.20;30.10
21171;DHT22;10743;52.160;20.910;2023-07-02T13:51:48;36.20;29.80
21171;DHT22;10743;52.160;20.910;2023-07-02T13:54:17;36.20;30.60
21171;DHT22;10743;52.160;20.910;2023-07-02T13:56:46;36.20;29.80
21171;DHT22;10743;52.160;20.910;2023-07-02T13:59:17;36.10;29.90
21171;DHT22;10743;52.160;20.910;2023-07-02T14:01:46;36.00;29.80
21171;DHT22;10743;52.160;20.910;2023-07-02T14:04:14;36.10;29.50
21171;DHT22;10743;52.160;20.910;2023-07-02T14:06:43;36.00;29.30
21171;DHT22;10743;52.160;20.910;2023-07-02T14:09:10;36.00;29.60
21171;DHT22;10743;52.160;20.910;2023-07-02T14:11:40;36.00;29.80
21171;DHT22;10743;52.160;20.910;2023-07-02T14:14:07;36.00;30.00
21171;DHT22;10743;52.160;20.910;2023-07-02T14:16:35;36.00;29.40
21171;DHT22;10743;52.160;20.910;2023-07-02T14:19:02;35.90;29.10
21171;DHT22;10743;52.160;20.910;2023-07-02T14:21:29;36.00;29.20
21171;DHT22;10743;52.160;20.910;2023-07-02T14:23:58;36.00;29.40
21171;DHT22;10743;52.160;20.910;2023-07-02T14:26:25;36.00;29.00
21171;DHT22;10743;52.160;20.910;2023-07-02T14:28:53;35.90;29.00
21171;DHT22;10743;52.160;20.910;2023-07-02T14:31:20;36.00;28.50
21171;DHT22;10743;52.160;20.910;2023-07-02T14:33:48;36.00;28.20
21171;DHT22;10743;52.160;20.910;2023-07-02T14:36:16;36.00;28.50
21171;DHT22;10743;52.160;20.910;2023-07-02T14:38:43;36.00;28.40
21171;DHT22;10743;52.160;20.910;2023-07-02T14:41:10;35.90;28.60
21171;DHT22;10743;52.160;20.910;2023-07-02T14:43:37;35.90;28.10
21171;DHT22;10743;52.160;20.910;2023-07-02T14:46:05;36.00;27.70
21171;DHT22;10743;52.160;20.910;2023-07-02T14:48:32;36.00;28.00
21171;DHT22;10743;52.160;20.910;2023-07-02T14:51:00;35.90;28.30
21171;DHT22;10743;52.160;20.910;2023-07-02T14:53:29;35.90;28.20
21171;DHT22;10743;52.160;20.910;2023-07-02T14:56:01;35.90;28.10
21171;DHT22;10743;52.160;20.910;2023-07-02T14:58:30;35.90;27.90
21171;DHT22;10743;52.160;20.910;2023-07-02T15:00:58;35.90;27.60
21171;DHT22;10743;52.160;20.910;2023-07-02T15:03:27;35.90;28.20
21171;DHT22;10743;52.160;20.910;2023-07-02T15:06:09;35.80;28.30
21171;DHT22;10743;52.160;20.910;2023-07-02T15:08:38;35.90;28.70
21171;DHT22;10743;52.160;20.910;2023-07-02T15:11:05;35.90;28.80
21171;DHT22;10743;52.160;20.910;2023-07-02T15:13:32;35.80;29.10
21171;DHT22;10743;52.160;20.910;2023-07-02T15:16:00;36.00;28.80
21171;DHT22;10743;52.160;20.910;2023-07-02T15:18:27;36.00;28.70
21171;DHT22;10743;52.160;20.910;2023-07-02T15:20:54;36.00;28.40
21171;DHT22;10743;52.160;20.910;2023-07-02T15:23:24;36.10;28.30
21171;DHT22;10743;52.160;20.910;2023-07-02T15:25:53;36.10;28.70
21171;DHT22;10743;52.160;20.910;2023-07-02T15:28:23;36.10;28.80
21171;DHT22;10743;52.160;20.910;2023-07-02T15:31:06;36.10;28.60
21171;DHT22;10743;52.160;20.910;2023-07-02T15:33:34;36.00;28.50